createdAt,value
2018-09-17T00:00:29.049Z,99.90
2018-09-17T00:02:57.281Z,99.90
2018-09-17T00:05:25.526Z,99.90
2018-09-17T00:07:53.750Z,99.90
2018-09-17T00:10:22.329Z,99.90
2018-09-17T00:12:51.339Z,99.90
2018-09-17T00:15:20.631Z,99.90
2018-09-17T00:17:49.497Z,99.90
2018-09-17T00:20:18.897Z,99.90
2018-09-17T00:22:49.072Z,99.90
2018-09-17T00:25:18.766Z,99.90
2018-09-17T00:27:48.014Z,99.90
2018-09-17T00:30:16.858Z,99.90
2018-09-17T00:32:46.079Z,99.90
2018-09-17T00:35:16.615Z,99.90
2018-09-17T00:37:46.744Z,99.90
2018-09-17T00:40:15.980Z,99.90
2018-09-17T00:42:46.121Z,99.90
2018-09-17T00:45:16.697Z,99.90
2018-09-17T00:47:48.220Z,99.90
2018-09-17T00:50:17.612Z,99.90
2018-09-17T00:52:46.962Z,99.90
2018-09-17T00:55:16.389Z,99.90
2018-09-17T00:57:45.945Z,99.90
2018-09-17T01:00:14.688Z,99.90
2018-09-17T01:02:43.523Z,99.90
2018-09-17T01:05:11.922Z,99.90
2018-09-17T01:07:40.343Z,99.90
2018-09-17T01:10:09.272Z,99.90
2018-09-17T01:12:37.930Z,99.90
2018-09-17T01:15:06.625Z,99.90
2018-09-17T01:17:35.449Z,99.90
2018-09-17T01:20:03.749Z,99.90
2018-09-17T01:22:31.998Z,99.90
2018-09-17T01:25:00.206Z,99.90
2018-09-17T01:27:28.463Z,99.90
2018-09-17T01:29:56.681Z,99.90
2018-09-17T01:32:24.892Z,99.90
2018-09-17T01:34:53.209Z,99.90
2018-09-17T01:37:21.595Z,99.90
2018-09-17T01:39:50.934Z,99.90
2018-09-17T01:42:19.829Z,99.90
2018-09-17T01:44:49.184Z,99.90
2018-09-17T01:47:18.078Z,99.90
2018-09-17T01:49:48.289Z,99.90
2018-09-17T01:52:17.585Z,99.90
2018-09-17T01:54:47.203Z,99.90
2018-09-17T01:57:16.398Z,99.90
2018-09-17T01:59:45.836Z,99.90
2018-09-17T02:02:15.562Z,99.90
2018-09-17T02:04:46.475Z,99.90
2018-09-17T02:07:15.995Z,99.90
2018-09-17T02:09:45.033Z,99.90
2018-09-17T02:12:14.368Z,99.90
2018-09-17T02:14:44.102Z,99.90
2018-09-17T02:17:12.634Z,99.90
2018-09-17T02:19:40.893Z,99.90
2018-09-17T02:22:09.745Z,99.90
2018-09-17T02:24:38.389Z,99.90
2018-09-17T02:27:07.375Z,99.90
2018-09-17T02:29:36.720Z,99.90
2018-09-17T02:32:05.453Z,99.90
2018-09-17T02:34:33.809Z,99.90
2018-09-17T02:37:02.023Z,99.90
2018-09-17T02:39:30.210Z,99.90
2018-09-17T02:41:58.413Z,99.90
2018-09-17T02:44:26.620Z,99.90
2018-09-17T02:46:54.847Z,99.90
2018-09-17T02:49:23.102Z,99.90
2018-09-17T02:51:51.827Z,99.90
2018-09-17T02:54:20.478Z,99.90
2018-09-17T02:56:49.936Z,99.90
2018-09-17T02:59:18.709Z,99.90
2018-09-17T03:01:48.915Z,99.90
2018-09-17T03:04:18.440Z,99.90
2018-09-17T03:06:47.734Z,99.90
2018-09-17T03:09:17.176Z,99.90
2018-09-17T03:11:47.445Z,99.90
2018-09-17T03:14:16.904Z,99.90
2018-09-17T03:16:56.445Z,99.90
2018-09-17T03:19:24.643Z,99.90
2018-09-17T03:21:53.097Z,99.90
2018-09-17T03:24:21.795Z,99.90
2018-09-17T03:26:50.431Z,99.90
2018-09-17T03:29:19.517Z,99.90
2018-09-17T03:31:49.103Z,99.90
2018-09-17T03:34:18.997Z,99.90
2018-09-17T03:36:53.256Z,99.90
2018-09-17T03:39:21.886Z,99.90
2018-09-17T03:41:50.734Z,99.90
2018-09-17T03:44:20.017Z,99.90
2018-09-17T03:46:49.126Z,99.90
2018-09-17T03:49:18.229Z,99.90
2018-09-17T03:51:47.390Z,99.90
2018-09-17T03:54:17.106Z,99.90
2018-09-17T03:56:46.092Z,99.90
2018-09-17T03:59:15.003Z,99.90
2018-09-17T04:01:43.999Z,99.90
2018-09-17T04:04:14.745Z,99.90
2018-09-17T04:06:43.244Z,99.90
2018-09-17T04:09:11.619Z,99.90
2018-09-17T04:11:39.925Z,99.90
2018-09-17T04:14:08.529Z,99.90
2018-09-17T04:16:37.765Z,99.90
2018-09-17T04:19:06.571Z,99.90
2018-09-17T04:21:35.070Z,99.90
2018-09-17T04:24:03.295Z,99.90
2018-09-17T04:26:31.587Z,99.90
2018-09-17T04:28:59.800Z,99.90
2018-09-17T04:31:28.039Z,99.90
2018-09-17T04:33:56.270Z,99.90
2018-09-17T04:36:24.556Z,99.90
2018-09-17T04:38:53.114Z,99.90
2018-09-17T04:41:21.821Z,99.90
2018-09-17T04:43:50.636Z,99.90
2018-09-17T04:46:21.259Z,99.90
2018-09-17T04:48:50.201Z,99.90
2018-09-17T04:51:19.347Z,99.90
2018-09-17T04:53:49.256Z,99.90
2018-09-17T04:56:19.033Z,99.90
2018-09-17T04:58:48.080Z,99.90
2018-09-17T05:01:20.654Z,99.90
2018-09-17T05:03:50.898Z,99.90
2018-09-17T05:06:20.879Z,99.90
2018-09-17T05:08:50.802Z,99.90
2018-09-17T05:11:20.275Z,99.90
2018-09-17T05:13:49.272Z,99.90
2018-09-17T05:16:18.159Z,99.90
2018-09-17T05:18:48.262Z,99.90
2018-09-17T05:21:19.119Z,99.90
2018-09-17T05:23:48.685Z,99.90
2018-09-17T05:26:19.350Z,99.90
2018-09-17T05:28:48.320Z,99.90
2018-09-17T05:31:19.464Z,99.90
2018-09-17T05:33:49.775Z,99.90
2018-09-17T05:36:20.269Z,99.90
2018-09-17T05:38:49.391Z,99.90
2018-09-17T05:41:18.984Z,99.90
2018-09-17T05:43:53.806Z,99.90
2018-09-17T05:46:22.449Z,99.90
2018-09-17T05:48:51.353Z,99.90
2018-09-17T05:51:27.211Z,99.90
2018-09-17T05:53:55.703Z,99.90
2018-09-17T05:56:23.858Z,99.90
2018-09-17T05:58:52.945Z,99.90
2018-09-17T06:01:21.705Z,99.90
2018-09-17T06:03:50.591Z,99.90
2018-09-17T06:06:21.644Z,99.90
2018-09-17T06:08:50.481Z,99.90
2018-09-17T06:11:21.094Z,99.90
2018-09-17T06:13:50.051Z,99.90
2018-09-17T06:16:19.109Z,99.90
2018-09-17T06:18:48.309Z,99.90
2018-09-17T06:21:17.809Z,99.90
2018-09-17T06:23:50.274Z,99.90
2018-09-17T06:26:19.198Z,99.90
2018-09-17T06:28:48.326Z,99.90
2018-09-17T06:31:17.884Z,99.90
2018-09-17T06:33:47.679Z,99.90
2018-09-17T06:36:17.849Z,99.90
2018-09-17T06:38:47.336Z,99.90
2018-09-17T06:41:17.402Z,99.90
2018-09-17T06:43:47.416Z,99.90
2018-09-17T06:46:18.038Z,99.90
2018-09-17T06:48:47.734Z,99.90
2018-09-17T06:51:17.564Z,99.90
2018-09-17T06:53:46.722Z,99.90
2018-09-17T06:56:16.848Z,99.90
2018-09-17T06:58:46.395Z,99.90
2018-09-17T07:01:16.603Z,99.90
2018-09-17T07:03:47.817Z,99.90
2018-09-17T07:06:19.886Z,99.90
2018-09-17T07:08:49.047Z,99.90
2018-09-17T07:11:19.488Z,99.90
2018-09-17T07:13:48.940Z,99.90
2018-09-17T07:16:18.875Z,99.90
2018-09-17T07:18:47.798Z,99.90
2018-09-17T07:21:16.911Z,99.90
2018-09-17T07:23:46.169Z,99.90
2018-09-17T07:26:17.157Z,99.90
2018-09-17T07:28:46.373Z,99.90
2018-09-17T07:31:15.633Z,99.90
2018-09-17T07:33:44.917Z,99.90
2018-09-17T07:36:13.874Z,99.90
2018-09-17T07:38:42.278Z,99.90
2018-09-17T07:41:10.591Z,99.90
2018-09-17T07:43:39.171Z,99.90
2018-09-17T07:46:08.352Z,99.90
2018-09-17T07:48:38.885Z,99.90
2018-09-17T07:51:07.614Z,99.90
2018-09-17T07:53:36.227Z,98.60
2018-09-17T07:56:04.744Z,94.80
2018-09-17T07:58:32.966Z,97.10
2018-09-17T08:01:01.241Z,96.40
2018-09-17T08:03:29.433Z,93.60
2018-09-17T08:05:57.649Z,94.10
2018-09-17T08:08:25.865Z,93.90
2018-09-17T08:10:54.102Z,92.50
2018-09-17T08:13:22.546Z,90.70
2018-09-17T08:15:52.042Z,86.80
2018-09-17T08:18:20.837Z,82.00
2018-09-17T08:20:49.711Z,81.40
2018-09-17T08:23:19.165Z,77.60
2018-09-17T08:25:48.138Z,74.90
2018-09-17T08:28:17.091Z,70.60
2018-09-17T08:30:49.143Z,72.10
2018-09-17T08:33:18.347Z,72.00
2018-09-17T08:35:48.375Z,68.60
2018-09-17T08:38:17.878Z,66.60
2018-09-17T08:40:55.217Z,62.60
2018-09-17T08:43:23.511Z,61.20
2018-09-17T08:45:52.009Z,62.50
2018-09-17T08:48:20.728Z,62.30
2018-09-17T08:50:51.232Z,61.70
2018-09-17T08:53:19.869Z,58.60
2018-09-17T08:55:53.962Z,58.80
2018-09-17T08:58:24.981Z,58.00
2018-09-17T09:02:00.022Z,57.10
2018-09-17T09:04:33.807Z,57.30
2018-09-17T09:07:07.419Z,56.00
2018-09-17T09:09:35.966Z,53.30
2018-09-17T09:12:09.443Z,52.10
2018-09-17T09:14:39.885Z,55.00
2018-09-17T09:17:09.412Z,53.70
2018-09-17T09:19:38.402Z,50.10
2018-09-17T09:22:07.352Z,49.40
2018-09-17T09:24:36.674Z,48.90
2018-09-17T09:27:05.308Z,48.80
2018-09-17T09:29:33.606Z,49.00
2018-09-17T09:32:01.886Z,48.90
2018-09-17T09:34:30.082Z,48.70
2018-09-17T09:36:58.297Z,48.40
2018-09-17T09:39:26.486Z,47.60
2018-09-17T09:41:54.715Z,47.80
2018-09-17T09:44:23.192Z,47.60
2018-09-17T09:46:51.961Z,48.10
2018-09-17T09:49:20.777Z,48.00
2018-09-17T09:51:53.903Z,45.90
2018-09-17T09:54:22.650Z,45.60
2018-09-17T09:56:51.337Z,44.30
2018-09-17T09:59:20.225Z,44.40
2018-09-17T10:01:54.204Z,44.70
2018-09-17T10:04:23.405Z,42.60
2018-09-17T10:06:52.842Z,43.80
2018-09-17T10:09:26.414Z,44.10
2018-09-17T10:12:00.059Z,44.40
2018-09-17T10:14:33.820Z,45.30
2018-09-17T10:17:07.365Z,44.40
2018-09-17T10:19:39.897Z,44.40
2018-09-17T10:22:08.533Z,43.00
2018-09-17T10:24:37.295Z,43.40
2018-09-17T10:27:05.815Z,43.30
2018-09-17T10:29:34.062Z,43.20
2018-09-17T10:32:02.283Z,42.70
2018-09-17T10:34:30.590Z,43.20
2018-09-17T10:36:58.790Z,43.70
2018-09-17T10:39:27.020Z,43.50
2018-09-17T10:41:55.237Z,42.00
2018-09-17T10:44:23.605Z,40.90
2018-09-17T10:46:52.234Z,43.00
2018-09-17T10:49:21.289Z,42.60
2018-09-17T10:51:50.294Z,42.50
2018-09-17T10:54:19.589Z,43.40
2018-09-17T10:56:48.704Z,42.80
2018-09-17T10:59:17.796Z,42.80
2018-09-17T11:01:47.263Z,43.40
2018-09-17T11:04:17.451Z,43.20
2018-09-17T11:06:57.063Z,43.90
2018-09-17T11:09:25.270Z,44.60
2018-09-17T11:11:53.604Z,44.30
2018-09-17T11:14:22.413Z,44.40
2018-09-17T11:16:51.361Z,45.40
2018-09-17T11:19:20.011Z,44.30
2018-09-17T11:21:50.293Z,43.60
2018-09-17T11:24:25.917Z,43.90
2018-09-17T11:26:56.446Z,43.50
2018-09-17T11:29:24.667Z,42.20
2018-09-17T11:31:53.389Z,43.50
2018-09-17T11:34:22.015Z,43.00
2018-09-17T11:36:51.235Z,43.70
2018-09-17T11:39:20.849Z,43.10
2018-09-17T11:41:50.105Z,43.70
2018-09-17T11:44:19.253Z,41.30
2018-09-17T11:46:48.731Z,41.60
2018-09-17T11:49:18.677Z,40.70
2018-09-17T11:51:48.445Z,41.90
2018-09-17T11:54:19.157Z,42.00
2018-09-17T11:56:47.981Z,40.40
2018-09-17T11:59:18.483Z,39.30
2018-09-17T12:01:55.682Z,38.40
2018-09-17T12:04:29.440Z,38.90
2018-09-17T12:07:03.114Z,38.90
2018-09-17T12:09:31.350Z,39.90
2018-09-17T12:11:59.601Z,38.80
2018-09-17T12:14:27.795Z,39.10
2018-09-17T12:16:56.018Z,39.10
2018-09-17T12:19:24.264Z,38.60
2018-09-17T12:21:52.843Z,38.40
2018-09-17T12:24:21.679Z,37.70
2018-09-17T12:26:50.597Z,38.10
2018-09-17T12:29:19.590Z,37.10
2018-09-17T12:31:48.650Z,36.90
2018-09-17T12:34:21.003Z,35.70
2018-09-17T12:36:50.280Z,36.80
2018-09-17T12:39:19.159Z,35.10
2018-09-17T12:41:47.428Z,35.20
2018-09-17T12:44:15.701Z,34.10
2018-09-17T12:46:44.013Z,35.10
2018-09-17T12:49:12.253Z,34.80
2018-09-17T12:51:40.474Z,36.20
2018-09-17T12:54:08.682Z,36.00
2018-09-17T12:56:37.705Z,35.80
2018-09-17T12:59:06.639Z,35.90
2018-09-17T13:01:34.870Z,36.10
2018-09-17T13:04:03.143Z,35.80
2018-09-17T13:06:31.336Z,36.50
2018-09-17T13:08:59.562Z,37.10
2018-09-17T13:11:27.759Z,36.80
2018-09-17T13:13:55.955Z,37.60
2018-09-17T13:16:24.525Z,38.30
2018-09-17T13:18:53.097Z,37.50
2018-09-17T13:21:22.072Z,36.10
2018-09-17T13:23:51.064Z,37.60
2018-09-17T13:26:20.620Z,38.10
2018-09-17T13:28:50.652Z,38.70
2018-09-17T13:31:21.213Z,39.10
2018-09-17T13:33:50.129Z,39.00
2018-09-17T13:36:19.472Z,39.60
2018-09-17T13:38:50.348Z,40.00
2018-09-17T13:41:20.455Z,39.20
2018-09-17T13:43:50.518Z,39.70
2018-09-17T13:46:19.608Z,39.70
2018-09-17T13:48:52.344Z,39.40
2018-09-17T13:51:23.386Z,39.60
2018-09-17T13:53:53.006Z,39.40
2018-09-17T13:56:22.122Z,39.90
2018-09-17T13:58:51.446Z,39.10
2018-09-17T14:01:21.328Z,38.70
2018-09-17T14:03:51.371Z,38.20
2018-09-17T14:06:20.910Z,38.80
2018-09-17T14:08:50.310Z,39.50
2018-09-17T14:11:20.382Z,38.80
2018-09-17T14:13:49.933Z,38.60
2018-09-17T14:16:24.583Z,37.00
2018-09-17T14:18:53.291Z,38.90
2018-09-17T14:21:22.100Z,38.00
2018-09-17T14:23:52.689Z,37.70
2018-09-17T14:26:24.422Z,38.30
2018-09-17T14:28:53.836Z,38.80
2018-09-17T14:31:47.935Z,39.70
2018-09-17T14:34:18.257Z,39.30
2018-09-17T14:36:48.033Z,39.60
2018-09-17T14:39:18.149Z,40.10
2018-09-17T14:41:48.658Z,40.80
2018-09-17T14:44:18.359Z,41.00
2018-09-17T14:46:50.850Z,40.30
2018-09-17T14:49:20.704Z,40.30
2018-09-17T14:51:49.759Z,40.50
2018-09-17T14:54:19.615Z,40.40
2018-09-17T14:56:49.909Z,40.30
2018-09-17T14:59:19.311Z,41.00
2018-09-17T15:01:51.427Z,41.30
2018-09-17T15:04:20.637Z,42.50
2018-09-17T15:06:49.265Z,41.40
2018-09-17T15:09:19.154Z,41.10
2018-09-17T15:11:48.673Z,41.60
2018-09-17T15:14:18.926Z,41.50
2018-09-17T15:16:49.288Z,41.60
2018-09-17T15:19:19.674Z,42.50
2018-09-17T15:21:50.853Z,42.20
2018-09-17T15:24:20.508Z,42.80
2018-09-17T15:26:50.461Z,43.10
2018-09-17T15:29:20.256Z,43.20
2018-09-17T15:31:50.108Z,42.20
2018-09-17T15:34:19.180Z,42.50
2018-09-17T15:36:49.797Z,43.20
2018-09-17T15:39:21.320Z,43.30
2018-09-17T15:41:50.781Z,43.60
2018-09-17T15:44:20.308Z,43.00
2018-09-17T15:46:50.320Z,44.40
2018-09-17T15:49:19.349Z,44.00
2018-09-17T15:51:48.679Z,44.00
2018-09-17T15:54:17.846Z,44.20
2018-09-17T15:56:48.393Z,44.20
2018-09-17T15:59:18.178Z,44.80
2018-09-17T16:01:47.852Z,44.10
2018-09-17T16:04:22.768Z,45.10
2018-09-17T16:06:52.164Z,46.10
2018-09-17T16:09:21.312Z,46.40
2018-09-17T16:11:50.338Z,45.40
2018-09-17T16:14:19.642Z,46.90
2018-09-17T16:16:48.793Z,47.30
2018-09-17T16:19:18.046Z,51.30
2018-09-17T16:21:48.890Z,49.40
2018-09-17T16:24:19.221Z,55.50
2018-09-17T16:26:48.953Z,57.30
2018-09-17T16:29:20.773Z,58.80
2018-09-17T16:31:50.010Z,59.80
2018-09-17T16:34:20.031Z,63.40
2018-09-17T16:36:49.516Z,67.80
2018-09-17T16:39:24.440Z,68.20
2018-09-17T16:41:53.366Z,70.90
2018-09-17T16:44:22.120Z,73.50
2018-09-17T16:46:51.136Z,76.90
2018-09-17T16:49:21.271Z,81.90
2018-09-17T16:51:50.568Z,83.60
2018-09-17T16:54:22.209Z,89.60
2018-09-17T16:56:51.147Z,90.40
2018-09-17T16:59:21.142Z,95.10
2018-09-17T17:01:50.795Z,99.90
2018-09-17T17:04:21.090Z,99.90
2018-09-17T17:06:52.218Z,99.90
2018-09-17T17:09:21.641Z,99.90
2018-09-17T17:11:51.030Z,99.90
2018-09-17T17:14:20.380Z,99.90
2018-09-17T17:16:49.700Z,99.90
2018-09-17T17:19:19.697Z,99.90
2018-09-17T17:21:52.425Z,99.90
2018-09-17T17:24:21.993Z,99.90
2018-09-17T17:26:55.074Z,99.90
2018-09-17T17:29:23.453Z,99.90
2018-09-17T17:31:52.458Z,99.90
2018-09-17T17:34:21.724Z,99.90
2018-09-17T17:36:50.916Z,99.90
2018-09-17T17:39:20.079Z,99.90
2018-09-17T17:41:59.533Z,99.90
2018-09-17T17:44:27.815Z,99.90
2018-09-17T17:46:56.028Z,99.90
2018-09-17T17:49:24.227Z,99.90
2018-09-17T17:51:53.272Z,99.90
2018-09-17T17:54:22.189Z,99.90
2018-09-17T17:56:51.088Z,99.90
2018-09-17T17:59:20.388Z,99.90
2018-09-17T18:02:02.289Z,99.90
2018-09-17T18:04:30.694Z,99.90
2018-09-17T18:07:00.593Z,99.90
2018-09-17T18:09:28.929Z,99.90
2018-09-17T18:11:57.056Z,99.90
2018-09-17T18:14:25.654Z,99.90
2018-09-17T18:16:54.792Z,99.90
2018-09-17T18:19:23.181Z,99.90
2018-09-17T18:21:52.796Z,99.90
2018-09-17T18:24:21.193Z,99.90
2018-09-17T18:26:50.398Z,99.90
2018-09-17T18:29:18.864Z,99.90
2018-09-17T18:31:48.874Z,99.90
2018-09-17T18:34:19.674Z,99.90
2018-09-17T18:36:50.608Z,99.90
2018-09-17T18:39:19.764Z,99.90
2018-09-17T18:41:49.003Z,99.90
2018-09-17T18:44:18.605Z,99.90
2018-09-17T18:46:52.479Z,99.90
2018-09-17T18:49:22.670Z,99.90
2018-09-17T18:51:52.540Z,99.90
2018-09-17T18:54:21.958Z,99.90
2018-09-17T18:56:51.830Z,99.90
2018-09-17T18:59:20.601Z,99.90
2018-09-17T19:01:50.709Z,99.90
2018-09-17T19:04:20.736Z,99.90
2018-09-17T19:06:50.320Z,99.90
2018-09-17T19:09:21.119Z,99.90
2018-09-17T19:11:50.657Z,99.90
2018-09-17T19:14:25.653Z,99.90
2018-09-17T19:16:56.748Z,99.90
2018-09-17T19:19:25.169Z,99.90
2018-09-17T19:21:58.849Z,99.90
2018-09-17T19:24:26.921Z,99.90
2018-09-17T19:26:56.246Z,99.90
2018-09-17T19:29:24.449Z,99.90
2018-09-17T19:31:52.973Z,99.90
2018-09-17T19:34:22.251Z,99.90
2018-09-17T19:36:50.823Z,99.90
2018-09-17T19:39:24.761Z,99.90
2018-09-17T19:41:53.348Z,99.90
2018-09-17T19:44:22.251Z,99.90
2018-09-17T19:46:51.186Z,99.90
2018-09-17T19:49:20.419Z,99.90
2018-09-17T19:51:54.340Z,99.90
2018-09-17T19:54:22.690Z,99.90
2018-09-17T19:56:51.529Z,99.90
2018-09-17T19:59:25.779Z,99.90
2018-09-17T20:01:55.892Z,99.90
2018-09-17T20:04:29.538Z,99.90
2018-09-17T20:06:57.917Z,99.90
2018-09-17T20:09:26.144Z,99.90
2018-09-17T20:11:54.345Z,99.90
2018-09-17T20:14:22.914Z,99.90
2018-09-17T20:16:51.756Z,99.90
2018-09-17T20:19:21.504Z,99.90
2018-09-17T20:21:50.301Z,99.90
2018-09-17T20:24:19.325Z,99.90
2018-09-17T20:26:48.867Z,99.90
2018-09-17T20:29:18.462Z,99.90
2018-09-17T20:31:48.049Z,99.90
2018-09-17T20:34:18.410Z,99.90
2018-09-17T20:36:48.824Z,99.90
2018-09-17T20:39:18.334Z,99.90
2018-09-17T20:41:49.327Z,99.90
2018-09-17T20:44:19.550Z,99.90
2018-09-17T20:46:48.674Z,99.90
2018-09-17T20:49:18.250Z,99.90
2018-09-17T20:51:47.232Z,99.90
2018-09-17T20:54:17.281Z,99.90
2018-09-17T20:56:47.519Z,99.90
2018-09-17T20:59:17.221Z,99.90
2018-09-17T21:01:48.466Z,99.90
2018-09-17T21:04:18.632Z,99.90
2018-09-17T21:06:48.362Z,99.90
2018-09-17T21:09:18.175Z,99.90
2018-09-17T21:11:48.704Z,99.90
2018-09-17T21:14:18.351Z,99.90
2018-09-17T21:16:48.385Z,99.90
2018-09-17T21:19:18.132Z,99.90
2018-09-17T21:21:48.370Z,99.90
2018-09-17T21:24:20.166Z,99.90
2018-09-17T21:26:49.936Z,99.90
2018-09-17T21:29:20.530Z,99.90
2018-09-17T21:31:50.663Z,99.90
2018-09-17T21:34:20.813Z,99.90
2018-09-17T21:36:50.255Z,99.90
2018-09-17T21:39:20.840Z,99.90
2018-09-17T21:41:50.464Z,99.90
2018-09-17T21:44:20.453Z,99.90
2018-09-17T21:46:49.640Z,99.90
2018-09-17T21:49:19.322Z,99.90
2018-09-17T21:51:50.685Z,99.90
2018-09-17T21:54:20.908Z,99.90
2018-09-17T21:56:50.191Z,99.90
2018-09-17T21:59:19.850Z,99.90
2018-09-17T22:01:49.669Z,99.90
2018-09-17T22:04:19.624Z,99.90
2018-09-17T22:06:49.214Z,99.90
2018-09-17T22:09:19.174Z,99.90
2018-09-17T22:11:48.858Z,99.90
2018-09-17T22:14:18.665Z,99.90
2018-09-17T22:16:47.945Z,99.90
2018-09-17T22:19:17.934Z,99.90
2018-09-17T22:21:47.875Z,99.90
2018-09-17T22:24:17.710Z,99.90
2018-09-17T22:26:47.478Z,99.90
2018-09-17T22:29:17.110Z,99.90
2018-09-17T22:31:46.341Z,99.90
2018-09-17T22:34:16.427Z,99.90
2018-09-17T22:36:46.289Z,99.90
2018-09-17T22:39:17.810Z,99.90
2018-09-17T22:41:47.874Z,99.90
2018-09-17T22:44:17.574Z,99.90
2018-09-17T22:46:47.607Z,99.90
2018-09-17T22:49:18.934Z,99.90
2018-09-17T22:51:49.953Z,99.90
2018-09-17T22:54:19.440Z,99.90
2018-09-17T22:56:48.871Z,99.90
2018-09-17T22:59:18.468Z,99.90
2018-09-17T23:01:48.701Z,99.90
2018-09-17T23:04:18.314Z,99.90
2018-09-17T23:06:49.540Z,99.90
2018-09-17T23:09:18.979Z,99.90
2018-09-17T23:11:48.325Z,99.90
2018-09-17T23:14:20.913Z,99.90
2018-09-17T23:16:50.274Z,99.90
2018-09-17T23:19:19.613Z,99.90
2018-09-17T23:21:49.317Z,99.90
2018-09-17T23:24:18.702Z,99.90
2018-09-17T23:26:49.555Z,99.90
2018-09-17T23:29:19.013Z,99.90
2018-09-17T23:31:48.677Z,99.90
2018-09-17T23:34:18.034Z,99.90
2018-09-17T23:37:02.426Z,99.90
2018-09-17T23:39:31.564Z,99.90
2018-09-17T23:41:59.797Z,99.90
2018-09-17T23:44:27.997Z,99.90
2018-09-17T23:46:56.199Z,99.90
2018-09-17T23:49:24.382Z,99.90
2018-09-17T23:51:53.021Z,99.90
2018-09-17T23:54:21.878Z,99.90
2018-09-17T23:56:51.040Z,99.90
2018-09-17T23:59:21.052Z,99.90
